Time;durP1;ratioP1;P1;durP2;ratioP2;P2;SDS_P1;SDS_P2;PMS_P1;PMS_P2;Temp;Humidity;BMP_temperature;BMP_pressure;BME280_temperature;BME280_humidity;BME280_pressure;Samples;Min_cycle;Max_cycle;Signal;HPM_P1;HPM_P2
2022/06/11 00:01:55;;;;;;;11.20;5.88;;;17.30;99.90;;;;;;5072781;28;20048;-47
2022/06/11 00:04:32;;;;;;;11.88;5.97;;;17.30;99.90;;;;;;5071284;28;20032;-48
2022/06/11 00:07:02;;;;;;;9.70;6.18;;;17.20;99.90;;;;;;5072507;28;20381;-50
2022/06/11 00:09:29;;;;;;;10.65;5.80;;;17.10;99.90;;;;;;5073100;28;20040;-48
2022/06/11 00:11:55;;;;;;;12.50;5.75;;;17.00;99.90;;;;;;5071881;28;20068;-48
2022/06/11 00:14:24;;;;;;;11.73;5.82;;;17.10;99.90;;;;;;5072480;28;20044;-47
2022/06/11 00:16:50;;;;;;;11.50;6.47;;;17.00;99.90;;;;;;5072671;28;20119;-48
2022/06/11 00:19:19;;;;;;;13.70;6.40;;;16.90;99.90;;;;;;5072792;28;20052;-49
2022/06/11 00:21:47;;;;;;;12.15;5.63;;;17.10;99.90;;;;;;5072382;28;20064;-48
2022/06/11 00:24:14;;;;;;;10.65;5.95;;;17.00;99.90;;;;;;5072525;28;20052;-47
2022/06/11 00:26:42;;;;;;;14.98;6.80;;;17.00;99.90;;;;;;5072405;28;20314;-46
2022/06/11 00:29:10;;;;;;;11.73;6.88;;;17.00;99.90;;;;;;5072073;28;20377;-48
2022/06/11 00:31:35;;;;;;;11.70;6.53;;;16.90;99.90;;;;;;5071596;28;20032;-45
2022/06/11 00:34:02;;;;;;;15.38;6.90;;;16.90;99.90;;;;;;5072096;28;20033;-46
2022/06/11 00:36:28;;;;;;;12.88;7.35;;;16.90;99.90;;;;;;5071710;28;20435;-50
2022/06/11 00:38:54;;;;;;;12.30;6.95;;;17.00;99.90;;;;;;5071316;28;20089;-50
2022/06/11 00:41:22;;;;;;;10.90;6.93;;;16.80;99.90;;;;;;5072107;28;20048;-47
2022/06/11 00:43:48;;;;;;;11.77;6.78;;;16.80;99.90;;;;;;5072412;28;20391;-49
2022/06/11 00:46:38;;;;;;;14.48;7.47;;;16.80;99.90;;;;;;5071901;28;20171;-49
2022/06/11 00:49:14;;;;;;;13.82;7.05;;;16.80;99.90;;;;;;5072702;28;20032;-48
2022/06/11 00:51:39;;;;;;;11.52;7.10;;;16.80;99.90;;;;;;5071993;28;20070;-49
2022/06/11 00:54:10;;;;;;;14.27;7.10;;;16.60;99.90;;;;;;5037673;28;20448;-48
2022/06/11 00:56:47;;;;;;;10.57;6.82;;;16.70;99.90;;;;;;5071707;28;20082;-48
2022/06/11 00:59:17;;;;;;;14.13;7.22;;;16.60;99.90;;;;;;5071907;28;20041;-45
2022/06/11 01:01:43;;;;;;;12.75;7.35;;;16.60;99.90;;;;;;5071908;28;20036;-47
2022/06/11 01:04:47;;;;;;;12.48;6.95;;;16.50;99.90;;;;;;5071853;28;20529;-48
2022/06/11 01:07:18;;;;;;;13.27;7.25;;;16.40;99.90;;;;;;5071743;28;20036;-48
2022/06/11 01:09:57;;;;;;;12.40;6.78;;;16.30;99.90;;;;;;5071564;28;20059;-49
2022/06/11 01:12:47;;;;;;;11.48;6.75;;;16.20;99.90;;;;;;5071267;28;20039;-50
2022/06/11 01:15:46;;;;;;;11.70;7.20;;;16.20;99.90;;;;;;5071586;28;20040;-47
2022/06/11 01:18:38;;;;;;;12.35;7.25;;;16.20;99.90;;;;;;5053917;28;20043;-48
2022/06/11 01:21:29;;;;;;;13.60;7.40;;;16.10;99.90;;;;;;5070962;28;20064;-46
2022/06/11 01:24:27;;;;;;;12.18;7.57;;;16.10;99.90;;;;;;5069888;28;20079;-48
2022/06/11 01:27:02;;;;;;;13.15;7.07;;;16.00;99.90;;;;;;5070972;28;20083;-48
2022/06/11 01:29:52;;;;;;;12.00;7.53;;;16.10;99.90;;;;;;5069509;28;20062;-47
2022/06/11 01:32:46;;;;;;;17.70;7.78;;;16.10;99.90;;;;;;5071035;28;20111;-48
2022/06/11 01:35:23;;;;;;;15.05;8.20;;;16.10;99.90;;;;;;5070734;28;20429;-46
2022/06/11 01:37:54;;;;;;;11.85;8.05;;;16.10;99.90;;;;;;5070836;28;20036;-47
2022/06/11 01:40:28;;;;;;;13.32;7.80;;;16.00;99.90;;;;;;5071288;28;20119;-48
2022/06/11 01:43:10;;;;;;;15.75;7.93;;;16.00;99.90;;;;;;5071119;28;20068;-48
2022/06/11 01:45:38;;;;;;;15.20;8.23;;;16.00;99.90;;;;;;5070387;28;20048;-50
2022/06/11 01:48:06;;;;;;;14.27;7.85;;;16.00;99.90;;;;;;5069737;28;20533;-49
2022/06/11 01:50:39;;;;;;;13.57;8.32;;;16.00;99.90;;;;;;5071038;28;20093;-47
2022/06/11 01:53:27;;;;;;;15.27;8.20;;;15.90;99.90;;;;;;5070970;28;20024;-47
2022/06/11 01:56:27;;;;;;;17.17;8.77;;;15.90;99.90;;;;;;5070724;28;20487;-48
2022/06/11 01:59:02;;;;;;;16.55;8.88;;;15.80;99.90;;;;;;5062294;28;20041;-51
2022/06/11 02:01:49;;;;;;;15.07;9.30;;;15.70;99.90;;;;;;5070753;28;20178;-49
2022/06/11 02:04:41;;;;;;;18.95;10.25;;;15.70;99.90;;;;;;5070013;28;20052;-47
2022/06/11 02:07:22;;;;;;;21.35;10.05;;;15.60;99.90;;;;;;5068145;28;20458;-47
2022/06/11 02:10:12;;;;;;;18.63;11.90;;;15.50;99.90;;;;;;5069762;28;20060;-49
2022/06/11 02:12:58;;;;;;;15.10;10.27;;;15.70;99.90;;;;;;5069273;28;20357;-49
2022/06/11 02:15:31;;;;;;;19.25;10.98;;;15.50;99.90;;;;;;5070425;28;20111;-48
2022/06/11 02:18:01;;;;;;;17.13;10.57;;;15.50;99.90;;;;;;5070735;28;20361;-48
2022/06/11 02:20:37;;;;;;;16.67;10.65;;;15.50;99.90;;;;;;5070319;28;20048;-48
2022/06/11 02:23:08;;;;;;;18.83;10.55;;;15.60;99.90;;;;;;5070369;28;20041;-49
2022/06/11 02:25:47;;;;;;;17.60;11.52;;;15.40;99.90;;;;;;5069935;28;20040;-45
2022/06/11 02:28:19;;;;;;;16.30;11.27;;;15.50;99.90;;;;;;5070429;28;20041;-49
2022/06/11 02:30:47;;;;;;;17.35;10.95;;;15.40;99.90;;;;;;5070540;28;20087;-50
2022/06/11 02:33:15;;;;;;;17.25;11.27;;;15.40;99.90;;;;;;5069884;28;20442;-47
2022/06/11 02:35:50;;;;;;;16.33;10.95;;;15.40;99.90;;;;;;5070310;28;20110;-50
2022/06/11 02:38:20;;;;;;;15.75;11.40;;;15.30;99.90;;;;;;5070386;28;20047;-49
2022/06/11 02:40:52;;;;;;;17.40;11.52;;;15.20;99.90;;;;;;5070118;28;20041;-48
2022/06/11 02:43:19;;;;;;;16.95;11.48;;;15.30;99.90;;;;;;5070062;28;20376;-48
2022/06/11 02:45:46;;;;;;;19.80;11.43;;;15.30;99.90;;;;;;5069687;28;20079;-49
2022/06/11 02:48:13;;;;;;;17.77;11.40;;;15.30;99.90;;;;;;5070340;28;20471;-51
2022/06/11 02:50:39;;;;;;;15.30;11.27;;;15.10;99.90;;;;;;5069898;28;20039;-49
2022/06/11 02:53:07;;;;;;;17.60;10.40;;;15.10;99.90;;;;;;5067081;28;20036;-48
2022/06/11 02:55:34;;;;;;;19.13;10.90;;;15.00;99.90;;;;;;5051788;28;20036;-46
2022/06/11 02:57:59;;;;;;;13.13;10.15;;;14.90;99.90;;;;;;5069835;28;20048;-51
2022/06/11 03:00:32;;;;;;;15.43;10.13;;;15.00;99.90;;;;;;5069511;28;20044;-48
2022/06/11 03:02:59;;;;;;;18.17;9.23;;;14.90;99.90;;;;;;5069667;28;20064;-48
2022/06/11 03:05:29;;;;;;;15.88;8.77;;;14.90;99.90;;;;;;5051323;28;20063;-50
2022/06/11 03:07:55;;;;;;;14.65;8.43;;;14.90;99.90;;;;;;5069161;28;20036;-47
2022/06/11 03:10:23;;;;;;;16.63;7.43;;;14.70;99.90;;;;;;5069800;28;20051;-52
2022/06/11 03:12:50;;;;;;;21.08;7.00;;;14.80;99.90;;;;;;5069594;28;20032;-50
2022/06/11 03:15:17;;;;;;;14.73;6.38;;;14.80;99.90;;;;;;5051553;28;20072;-46
2022/06/11 03:17:44;;;;;;;15.18;5.97;;;14.70;99.90;;;;;;5069652;28;20480;-50
2022/06/11 03:20:12;;;;;;;15.27;5.80;;;14.80;99.90;;;;;;5069440;28;20047;-49
2022/06/11 03:22:38;;;;;;;13.23;5.07;;;14.70;99.90;;;;;;5069233;28;20053;-49
2022/06/11 03:25:04;;;;;;;16.13;5.55;;;14.90;99.90;;;;;;5069500;28;20044;-49
2022/06/11 03:27:30;;;;;;;10.40;4.50;;;14.80;99.90;;;;;;5069335;28;20084;-49
2022/06/11 03:29:56;;;;;;;9.73;4.45;;;14.80;99.90;;;;;;5069398;28;20079;-47
2022/06/11 03:32:22;;;;;;;11.48;4.75;;;14.70;99.90;;;;;;5051273;28;20049;-49
2022/06/11 03:34:48;;;;;;;14.90;4.30;;;14.70;99.90;;;;;;5069136;28;20029;-47
2022/06/11 03:37:14;;;;;;;17.02;4.60;;;14.70;99.90;;;;;;5049796;28;20048;-47
2022/06/11 03:39:41;;;;;;;12.27;3.80;;;14.70;99.90;;;;;;5069148;28;20486;-50
2022/06/11 03:42:08;;;;;;;15.32;3.55;;;14.70;99.90;;;;;;5067777;28;20029;-50
2022/06/11 03:44:35;;;;;;;10.88;3.60;;;14.60;99.90;;;;;;5069329;28;20421;-49
2022/06/11 03:47:01;;;;;;;13.90;3.17;;;14.60;99.90;;;;;;5069305;28;20132;-48
2022/06/11 03:49:26;;;;;;;16.05;3.83;;;14.60;99.90;;;;;;5069358;28;20149;-49
2022/06/11 03:51:52;;;;;;;11.98;3.20;;;14.70;99.90;;;;;;5069627;28;20445;-48
2022/06/11 03:54:18;;;;;;;13.52;3.05;;;14.60;99.90;;;;;;5069456;28;20426;-49
2022/06/11 03:56:46;;;;;;;16.08;3.63;;;14.50;99.90;;;;;;5068714;28;20043;-50
2022/06/11 03:59:13;;;;;;;14.38;3.72;;;14.60;99.90;;;;;;5069370;28;20119;-46
2022/06/11 04:01:40;;;;;;;14.48;3.30;;;14.70;99.90;;;;;;5072864;28;20047;-50
2022/06/11 04:04:11;;;;;;;18.02;3.97;;;14.50;99.90;;;;;;5072548;28;20484;-49
2022/06/11 04:06:47;;;;;;;13.90;3.75;;;14.60;99.90;;;;;;5073001;28;20166;-49
2022/06/11 04:09:18;;;;;;;15.73;3.67;;;14.70;99.90;;;;;;5072952;28;20376;-50
2022/06/11 04:11:44;;;;;;;20.40;3.53;;;14.70;99.90;;;;;;5073076;28;20534;-47
2022/06/11 04:14:09;;;;;;;15.57;3.65;;;14.60;99.90;;;;;;5072505;28;20080;-51
2022/06/11 04:16:42;;;;;;;13.10;4.05;;;14.60;99.90;;;;;;5072650;28;20079;-47
2022/06/11 04:19:15;;;;;;;13.60;4.07;;;14.60;99.90;;;;;;5072543;28;20075;-45
2022/06/11 04:21:42;;;;;;;18.45;3.75;;;14.60;99.90;;;;;;5070340;28;20048;-46
2022/06/11 04:24:08;;;;;;;12.43;4.00;;;14.70;99.90;;;;;;5071757;28;20492;-51
2022/06/11 04:26:39;;;;;;;13.50;4.25;;;14.60;99.90;;;;;;5072115;28;20068;-50
2022/06/11 04:29:07;;;;;;;14.88;4.57;;;14.70;99.90;;;;;;5072800;28;20040;-48
2022/06/11 04:31:34;;;;;;;10.60;4.45;;;14.70;99.90;;;;;;5072450;28;20044;-51
2022/06/11 04:34:00;;;;;;;12.73;4.93;;;14.60;99.90;;;;;;5069924;28;20434;-51
2022/06/11 04:36:29;;;;;;;15.10;5.25;;;14.60;99.90;;;;;;5072475;28;20365;-48
2022/06/11 04:38:55;;;;;;;16.40;5.22;;;14.60;99.90;;;;;;5071511;28;20095;-47
2022/06/11 04:41:22;;;;;;;14.65;5.60;;;14.70;99.90;;;;;;5071172;28;20494;-48
2022/06/11 04:43:48;;;;;;;12.15;5.70;;;14.70;99.90;;;;;;5071939;28;20086;-50
2022/06/11 04:46:15;;;;;;;13.00;5.50;;;14.70;99.90;;;;;;5071961;28;20036;-47
2022/06/11 04:48:41;;;;;;;9.98;5.18;;;14.60;99.90;;;;;;5072128;28;20136;-44
2022/06/11 04:51:08;;;;;;;12.23;5.50;;;14.80;99.90;;;;;;5071849;28;20043;-49
2022/06/11 04:53:34;;;;;;;14.77;5.18;;;14.90;99.90;;;;;;5053728;28;20032;-50
2022/06/11 04:56:00;;;;;;;13.43;4.93;;;14.80;99.90;;;;;;5071863;28;20604;-48
2022/06/11 04:58:25;;;;;;;13.65;5.10;;;14.90;99.90;;;;;;5071628;28;20044;-49
2022/06/11 05:00:51;;;;;;;12.32;4.90;;;15.00;99.90;;;;;;5071150;28;20051;-48
2022/06/11 05:03:17;;;;;;;15.27;5.20;;;14.90;99.90;;;;;;5070467;28;20484;-47
2022/06/11 05:05:43;;;;;;;11.13;5.10;;;14.90;99.90;;;;;;5071760;28;20036;-50
2022/06/11 05:08:10;;;;;;;15.43;5.22;;;15.10;99.90;;;;;;5068793;28;20094;-46
2022/06/11 05:10:36;;;;;;;12.27;5.63;;;15.10;99.90;;;;;;5070259;28;20093;-47
2022/06/11 05:13:03;;;;;;;13.60;5.25;;;15.10;99.90;;;;;;5071352;28;20036;-48
2022/06/11 05:15:29;;;;;;;15.45;5.72;;;15.10;99.90;;;;;;5071434;28;20089;-48
2022/06/11 05:17:55;;;;;;;11.68;5.45;;;15.20;99.90;;;;;;5071788;28;20111;-48
2022/06/11 05:20:21;;;;;;;13.65;5.63;;;15.20;99.90;;;;;;5071594;28;20361;-48
2022/06/11 05:22:47;;;;;;;16.55;5.70;;;15.30;99.90;;;;;;5071268;28;20504;-50
2022/06/11 05:25:16;;;;;;;13.10;4.78;;;15.20;99.90;;;;;;5071561;28;20044;-49
2022/06/11 05:27:46;;;;;;;13.32;5.10;;;15.40;99.90;;;;;;5071521;28;20040;-48
2022/06/11 05:30:21;;;;;;;12.55;4.30;;;15.30;99.90;;;;;;5071103;28;20047;-49
2022/06/11 05:32:47;;;;;;;17.75;4.28;;;15.50;99.90;;;;;;5071210;28;20062;-50
2022/06/11 05:35:19;;;;;;;16.95;4.40;;;15.50;99.90;;;;;;5070683;28;20036;-46
2022/06/11 05:37:47;;;;;;;17.33;3.88;;;15.40;99.90;;;;;;5071307;28;20122;-47
2022/06/11 05:40:16;;;;;;;16.00;4.15;;;15.60;99.90;;;;;;5070617;28;20036;-47
2022/06/11 05:42:47;;;;;;;17.73;3.80;;;15.60;99.90;;;;;;5070610;28;20430;-51
2022/06/11 05:45:25;;;;;;;18.50;3.70;;;15.60;99.90;;;;;;5070973;28;20086;-48
2022/06/11 05:47:54;;;;;;;16.25;4.13;;;15.70;99.90;;;;;;5071057;28;20102;-48
2022/06/11 05:50:25;;;;;;;13.82;3.88;;;15.60;99.90;;;;;;5052846;28;20036;-49
2022/06/11 05:52:52;;;;;;;18.75;4.10;;;15.80;99.90;;;;;;5067670;28;20028;-45
2022/06/11 05:55:22;;;;;;;19.02;4.72;;;15.80;99.90;;;;;;5070948;28;20037;-50
2022/06/11 05:57:50;;;;;;;18.23;4.20;;;15.90;99.90;;;;;;5070451;28;20098;-45
2022/06/11 06:00:18;;;;;;;17.85;3.78;;;15.80;99.90;;;;;;5052471;28;20050;-46
2022/06/11 06:02:44;;;;;;;18.45;4.30;;;15.90;99.90;;;;;;5069407;28;20034;-48
2022/06/11 06:05:14;;;;;;;17.63;3.90;;;15.80;99.90;;;;;;5070303;28;20044;-50
2022/06/11 06:07:40;;;;;;;18.92;4.05;;;15.90;99.90;;;;;;5046117;28;20391;-47
2022/06/11 06:10:06;;;;;;;13.07;3.88;;;15.90;99.90;;;;;;5062438;28;20066;-50
2022/06/11 06:12:33;;;;;;;17.52;4.20;;;16.00;99.90;;;;;;5061687;28;20268;-49
2022/06/11 06:15:09;;;;;;;25.13;4.70;;;16.10;99.90;;;;;;5062009;28;20115;-47
2022/06/11 06:17:36;;;;;;;16.50;3.90;;;16.00;99.90;;;;;;5059550;28;20044;-46
2022/06/11 06:20:03;;;;;;;19.58;4.18;;;16.20;99.90;;;;;;5062107;28;20066;-46
2022/06/11 06:22:29;;;;;;;22.20;3.97;;;16.20;99.90;;;;;;5061296;28;20056;-49
2022/06/11 06:24:54;;;;;;;21.30;4.53;;;16.10;99.90;;;;;;5060901;28;20040;-51
2022/06/11 06:27:20;;;;;;;19.20;4.03;;;16.20;99.90;;;;;;5061912;28;20086;-47
2022/06/11 06:29:46;;;;;;;23.10;4.57;;;16.30;99.90;;;;;;5061770;28;20037;-46
2022/06/11 06:32:12;;;;;;;22.92;4.43;;;16.30;99.90;;;;;;5060949;28;20028;-46
2022/06/11 06:34:37;;;;;;;22.83;4.70;;;16.40;99.90;;;;;;5060644;28;20056;-46
2022/06/11 06:37:03;;;;;;;25.27;4.38;;;16.50;99.90;;;;;;5060864;28;20040;-46
2022/06/11 06:39:30;;;;;;;21.65;4.07;;;16.50;99.90;;;;;;5029640;28;20036;-46
2022/06/11 06:41:56;;;;;;;26.10;4.70;;;16.60;99.90;;;;;;5062147;28;21974;-47
2022/06/11 06:44:21;;;;;;;22.92;4.22;;;16.70;99.90;;;;;;5062280;28;20098;-48
2022/06/11 06:46:47;;;;;;;18.90;4.05;;;16.60;99.90;;;;;;5060553;28;20040;-49
2022/06/11 06:49:13;;;;;;;18.38;4.43;;;16.70;99.90;;;;;;5062046;28;20111;-47
2022/06/11 06:51:38;;;;;;;25.42;4.78;;;16.80;99.90;;;;;;5061186;28;20072;-46
2022/06/11 06:54:04;;;;;;;20.40;4.68;;;16.90;99.90;;;;;;5060958;28;20434;-47
2022/06/11 06:56:33;;;;;;;21.48;4.50;;;16.80;99.90;;;;;;5061976;28;20040;-48
2022/06/11 06:59:03;;;;;;;22.05;4.75;;;16.90;99.90;;;;;;5061740;28;20043;-46
2022/06/11 07:01:29;;;;;;;26.50;4.93;;;17.00;99.90;;;;;;5060877;28;20041;-47
2022/06/11 07:03:56;;;;;;;15.10;3.88;;;17.00;99.90;;;;;;5061352;28;20495;-46
2022/06/11 07:06:23;;;;;;;24.42;4.70;;;17.00;99.90;;;;;;5061441;28;20059;-50
2022/06/11 07:08:53;;;;;;;21.27;4.45;;;17.20;99.90;;;;;;5062037;28;20106;-48
2022/06/11 07:11:20;;;;;;;24.42;4.13;;;17.00;99.90;;;;;;5061095;28;20028;-50
2022/06/11 07:13:46;;;;;;;22.92;4.18;;;17.10;99.90;;;;;;5060332;28;20431;-49
2022/06/11 07:16:16;;;;;;;20.00;3.97;;;17.20;99.90;;;;;;5060757;28;20068;-48
2022/06/11 07:18:47;;;;;;;23.92;4.13;;;17.20;99.90;;;;;;5061936;28;20043;-50
2022/06/11 07:21:20;;;;;;;18.25;4.13;;;17.20;99.90;;;;;;5059056;28;20065;-47
2022/06/11 07:23:57;;;;;;;23.67;4.45;;;17.30;99.90;;;;;;5060102;28;20072;-50
2022/06/11 07:26:34;;;;;;;20.83;4.60;;;17.30;99.90;;;;;;5054029;28;20051;-47
2022/06/11 07:29:30;;;;;;;21.67;4.03;;;17.50;99.90;;;;;;5043728;28;20040;-50
2022/06/11 07:32:08;;;;;;;25.38;5.35;;;17.60;99.90;;;;;;5046034;28;20055;-49
2022/06/11 07:34:35;;;;;;;29.02;4.60;;;17.60;99.90;;;;;;5053169;28;20040;-50
2022/06/11 07:37:02;;;;;;;22.77;4.35;;;17.60;99.90;;;;;;5055190;28;20168;-51
2022/06/11 07:39:28;;;;;;;23.42;4.10;;;17.60;99.90;;;;;;5049388;28;20235;-50
2022/06/11 07:41:54;;;;;;;24.17;4.18;;;17.70;99.90;;;;;;5052061;28;20134;-52
2022/06/11 07:44:19;;;;;;;22.45;3.97;;;17.70;99.90;;;;;;5034364;28;20036;-50
2022/06/11 07:46:45;;;;;;;23.05;4.20;;;17.70;99.90;;;;;;5037295;28;20039;-49
2022/06/11 07:49:12;;;;;;;22.35;4.15;;;17.80;99.90;;;;;;5059919;28;20031;-50
2022/06/11 07:51:38;;;;;;;24.55;4.50;;;17.70;99.90;;;;;;5061682;28;20037;-48
2022/06/11 07:54:04;;;;;;;24.73;3.92;;;17.70;99.90;;;;;;5064800;28;20035;-49
2022/06/11 07:56:30;;;;;;;23.00;4.18;;;17.80;99.90;;;;;;5062397;28;20050;-48
2022/06/11 07:58:56;;;;;;;24.67;4.40;;;17.70;99.90;;;;;;5061867;28;20036;-46
2022/06/11 08:01:21;;;;;;;20.30;4.60;;;17.80;99.90;;;;;;5060130;28;20082;-47
2022/06/11 08:03:48;;;;;;;20.92;4.25;;;17.80;99.90;;;;;;5063127;28;20036;-50
2022/06/11 08:06:14;;;;;;;21.90;4.40;;;17.90;99.90;;;;;;5046620;28;20420;-48
2022/06/11 08:08:40;;;;;;;24.55;3.92;;;17.90;99.90;;;;;;5065405;28;20407;-51
2022/06/11 08:11:07;;;;;;;27.90;4.80;;;18.00;99.90;;;;;;5064956;28;20119;-50
2022/06/11 08:13:33;;;;;;;21.55;4.72;;;18.00;99.90;;;;;;5064585;28;20055;-52
2022/06/11 08:16:00;;;;;;;20.58;3.83;;;18.00;99.90;;;;;;5064083;28;20028;-50
2022/06/11 08:18:28;;;;;;;26.13;4.22;;;18.00;99.90;;;;;;5063416;28;20498;-52
2022/06/11 08:20:54;;;;;;;20.40;3.45;;;18.20;99.90;;;;;;5063211;28;20060;-49
2022/06/11 08:23:22;;;;;;;23.52;4.50;;;18.20;99.90;;;;;;5064463;28;20063;-48
2022/06/11 08:25:49;;;;;;;23.75;4.05;;;18.20;99.90;;;;;;5056822;28;20048;-49
2022/06/11 08:28:15;;;;;;;18.83;3.63;;;18.30;99.90;;;;;;5060597;28;20036;-49
2022/06/11 08:30:41;;;;;;;20.05;3.72;;;18.40;99.90;;;;;;5062153;28;20614;-51
2022/06/11 08:33:08;;;;;;;22.60;4.78;;;18.40;99.90;;;;;;5059203;28;20111;-51
2022/06/11 08:35:34;;;;;;;20.17;3.65;;;18.40;99.90;;;;;;5058202;28;20033;-50
2022/06/11 08:38:01;;;;;;;22.38;4.07;;;18.50;99.90;;;;;;5059728;28;20036;-49
2022/06/11 08:40:33;;;;;;;20.23;3.88;;;18.50;99.90;;;;;;5054310;28;20144;-49
2022/06/11 08:43:13;;;;;;;22.42;3.88;;;18.60;99.90;;;;;;5061024;28;20063;-48
2022/06/11 08:45:44;;;;;;;20.40;3.55;;;18.70;99.90;;;;;;5056298;28;20046;-50
2022/06/11 08:48:39;;;;;;;20.45;4.18;;;18.80;99.90;;;;;;5059582;28;20432;-49
2022/06/11 08:51:27;;;;;;;24.60;4.03;;;18.80;99.90;;;;;;5062698;28;20546;-45
2022/06/11 08:53:56;;;;;;;14.60;3.45;;;18.80;99.90;;;;;;5062096;28;20036;-50
2022/06/11 08:56:47;;;;;;;19.05;3.30;;;18.70;99.90;;;;;;5062235;28;20033;-50
2022/06/11 08:59:31;;;;;;;22.85;3.58;;;18.90;99.90;;;;;;5060014;28;20043;-49
2022/06/11 09:02:06;;;;;;;18.15;3.53;;;19.00;99.90;;;;;;5069166;28;20036;-47
2022/06/11 09:05:07;;;;;;;20.90;3.55;;;19.10;99.90;;;;;;5058007;28;20048;-47
2022/06/11 09:08:01;;;;;;;18.20;3.35;;;19.40;99.90;;;;;;5017381;28;20109;-47
2022/06/11 09:10:42;;;;;;;17.90;2.90;;;19.30;99.90;;;;;;5064166;28;20061;-44
2022/06/11 09:13:13;;;;;;;19.92;2.95;;;19.60;99.90;;;;;;5068629;28;20166;-45
2022/06/11 09:15:56;;;;;;;16.83;3.10;;;19.80;99.90;;;;;;5062105;28;20044;-44
2022/06/11 09:18:47;;;;;;;14.23;3.03;;;19.80;99.90;;;;;;5061826;28;20043;-44
2022/06/11 09:21:44;;;;;;;16.05;2.80;;;20.00;99.90;;;;;;5047834;28;20061;-45
2022/06/11 09:24:31;;;;;;;12.43;2.53;;;20.20;99.90;;;;;;5067170;28;20040;-45
2022/06/11 09:27:04;;;;;;;13.88;2.70;;;20.30;99.90;;;;;;5070962;28;20039;-48
2022/06/11 09:29:52;;;;;;;13.17;2.93;;;20.30;99.90;;;;;;5071343;28;20044;-45
2022/06/11 09:32:28;;;;;;;19.70;2.95;;;20.50;99.90;;;;;;5070626;28;20040;-44
2022/06/11 09:35:04;;;;;;;9.35;2.47;;;20.50;99.90;;;;;;5071073;28;20040;-47
2022/06/11 09:37:52;;;;;;;11.65;2.40;;;20.40;99.90;;;;;;5070914;28;20048;-46
2022/06/11 09:40:23;;;;;;;13.90;2.38;;;20.60;99.90;;;;;;5071013;28;20040;-47
2022/06/11 09:42:48;;;;;;;13.68;2.65;;;20.60;99.90;;;;;;5071307;28;20476;-46
2022/06/11 09:45:20;;;;;;;15.75;2.47;;;20.80;99.90;;;;;;5070807;28;20098;-47
2022/06/11 09:48:23;;;;;;;14.88;2.33;;;20.70;99.90;;;;;;5070498;28;20050;-46
2022/06/11 09:51:05;;;;;;;15.85;3.13;;;20.90;99.90;;;;;;5070225;28;20048;-48
2022/06/11 09:53:44;;;;;;;14.90;3.13;;;21.00;99.90;;;;;;5071206;28;20487;-46
2022/06/11 09:56:24;;;;;;;13.20;2.60;;;21.00;99.90;;;;;;5070831;28;20536;-46
2022/06/11 09:59:05;;;;;;;14.95;2.50;;;21.00;99.90;;;;;;5070304;28;20522;-49
2022/06/11 10:01:42;;;;;;;16.15;2.85;;;21.00;99.90;;;;;;5070439;28;20063;-46
2022/06/11 10:04:15;;;;;;;17.60;2.78;;;21.20;99.90;;;;;;5070389;28;20112;-49
2022/06/11 10:06:44;;;;;;;11.48;2.58;;;21.10;99.90;;;;;;5067891;28;20074;-46
2022/06/11 10:09:22;;;;;;;12.50;2.45;;;21.10;99.90;;;;;;5070834;28;20084;-47
2022/06/11 10:12:17;;;;;;;13.68;2.58;;;21.20;99.90;;;;;;5070504;28;20380;-45
2022/06/11 10:15:14;;;;;;;13.40;2.40;;;21.00;99.90;;;;;;5070740;28;20043;-46
2022/06/11 10:17:52;;;;;;;12.10;2.45;;;21.10;99.90;;;;;;5070611;28;20063;-45
2022/06/11 10:20:44;;;;;;;15.40;2.65;;;21.30;99.90;;;;;;5070458;28;20483;-47
2022/06/11 10:23:10;;;;;;;13.68;2.65;;;21.40;99.90;;;;;;5069748;28;20415;-47
2022/06/11 10:25:50;;;;;;;12.85;2.58;;;21.50;99.90;;;;;;5070200;28;20051;-47
2022/06/11 10:28:33;;;;;;;13.27;2.42;;;21.70;99.90;;;;;;5070530;28;20047;-47
2022/06/11 10:31:04;;;;;;;16.57;2.47;;;21.50;99.90;;;;;;5070498;28;20036;-47
2022/06/11 10:33:45;;;;;;;14.68;2.17;;;21.30;99.90;;;;;;5070021;28;20053;-50
2022/06/11 10:36:17;;;;;;;13.70;2.25;;;21.20;99.90;;;;;;5069753;28;20116;-46
2022/06/11 10:38:58;;;;;;;12.63;2.47;;;21.20;99.90;;;;;;5070422;28;20166;-48
2022/06/11 10:41:36;;;;;;;15.15;2.35;;;21.20;99.90;;;;;;5070316;28;20422;-46
2022/06/11 10:44:24;;;;;;;14.93;2.47;;;21.20;99.90;;;;;;5069902;28;20048;-46
2022/06/11 10:46:52;;;;;;;16.92;2.85;;;21.50;99.90;;;;;;5069680;28;20040;-46
2022/06/11 10:49:22;;;;;;;10.75;2.53;;;21.60;99.90;;;;;;5070409;28;20094;-46
2022/06/11 10:51:56;;;;;;;16.83;2.47;;;21.70;99.90;;;;;;5069882;28;20089;-45
2022/06/11 10:54:22;;;;;;;;;;;21.80;99.90;;;;;;5070698;28;20037;-49
2022/06/11 10:56:50;;;;;;;9.88;2.53;;;21.70;99.90;;;;;;5070241;28;19920;-45
2022/06/11 10:59:22;;;;;;;11.88;2.58;;;21.70;99.90;;;;;;5069985;28;20423;-46
2022/06/11 11:02:01;;;;;;;14.25;2.85;;;21.80;99.90;;;;;;5070135;28;20044;-46
2022/06/11 11:04:41;;;;;;;12.25;2.53;;;22.00;99.90;;;;;;5069443;28;20052;-46
2022/06/11 11:07:14;;;;;;;14.52;2.80;;;21.60;99.90;;;;;;5069568;28;20131;-48
2022/06/11 11:09:40;;;;;;;11.38;2.65;;;21.90;99.90;;;;;;5070865;28;20112;-46
2022/06/11 11:12:16;;;;;;;13.88;2.47;;;22.20;99.90;;;;;;5056110;28;20115;-49
2022/06/11 11:14:44;;;;;;;16.80;3.08;;;22.30;99.90;;;;;;5074329;28;20029;-49
2022/06/11 11:17:19;;;;;;;11.75;2.85;;;22.20;99.90;;;;;;5073657;28;20115;-50
2022/06/11 11:22:38;;;;;;;11.25;2.30;;;22.10;99.90;;;;;;5073217;28;20631;-47
2022/06/11 11:25:11;;;;;;;11.38;2.33;;;22.10;99.90;;;;;;5073651;28;20040;-48
2022/06/11 11:27:44;;;;;;;12.93;2.60;;;22.30;99.90;;;;;;5074051;28;20044;-49
2022/06/11 11:30:34;;;;;;;15.35;2.90;;;22.10;99.90;;;;;;5073448;28;20036;-49
2022/06/11 11:33:27;;;;;;;12.50;2.35;;;22.10;99.90;;;;;;5073771;28;20037;-48
2022/06/11 11:36:22;;;;;;;12.57;2.90;;;22.00;99.90;;;;;;5073122;28;20044;-47
2022/06/11 11:39:16;;;;;;;16.48;2.67;;;22.40;99.90;;;;;;5059723;28;20040;-46
2022/06/11 11:42:04;;;;;;;18.07;2.40;;;22.50;99.90;;;;;;5073620;28;20036;-48
2022/06/11 11:44:36;;;;;;;14.40;2.92;;;22.60;99.90;;;;;;5073484;28;20746;-46
2022/06/11 11:47:05;;;;;;;13.82;2.42;;;22.70;99.90;;;;;;5073291;28;20033;-47
2022/06/11 11:49:33;;;;;;;15.93;3.10;;;22.90;99.90;;;;;;5073216;28;20037;-48
2022/06/11 11:52:12;;;;;;;13.15;2.90;;;22.70;99.90;;;;;;5073276;28;20040;-49
2022/06/11 11:54:52;;;;;;;13.18;2.72;;;22.80;99.90;;;;;;5073046;28;20115;-47
2022/06/11 11:57:19;;;;;;;11.38;2.55;;;22.90;99.90;;;;;;5073507;28;20036;-47
2022/06/11 12:00:07;;;;;;;10.48;2.50;;;23.10;99.90;;;;;;5073277;28;20131;-46
2022/06/11 12:02:54;;;;;;;10.85;2.55;;;23.10;99.90;;;;;;5073123;28;20382;-46
2022/06/11 12:05:25;;;;;;;12.55;2.70;;;23.10;99.90;;;;;;5072495;28;20049;-49
2022/06/11 12:07:52;;;;;;;14.38;2.72;;;23.20;99.90;;;;;;5072678;28;20080;-47
2022/06/11 12:10:38;;;;;;;15.50;2.90;;;23.30;99.90;;;;;;5072457;28;20044;-48
2022/06/11 12:13:29;;;;;;;13.15;3.00;;;23.30;99.80;;;;;;5073162;28;20059;-48
2022/06/11 12:15:58;;;;;;;10.10;2.25;;;23.50;99.90;;;;;;5073077;28;20048;-49
2022/06/11 12:18:53;;;;;;;15.38;2.78;;;23.50;99.90;;;;;;5073079;28;20124;-46
2022/06/11 12:21:23;;;;;;;11.40;2.40;;;23.40;99.80;;;;;;5072303;28;20036;-48
2022/06/11 12:24:11;;;;;;;14.05;2.65;;;23.50;99.90;;;;;;5072688;28;20055;-48
2022/06/11 12:26:46;;;;;;;13.73;2.90;;;23.30;99.90;;;;;;5072516;28;20119;-48
2022/06/11 12:29:18;;;;;;;13.50;2.50;;;23.50;99.90;;;;;;5072691;28;20033;-46
2022/06/11 12:31:44;;;;;;;15.93;2.80;;;23.30;99.90;;;;;;5054696;28;20036;-47
2022/06/11 12:34:15;;;;;;;13.05;2.70;;;23.30;99.90;;;;;;5072050;28;20063;-45
2022/06/11 12:36:57;;;;;;;16.08;2.90;;;23.60;99.90;;;;;;5054075;28;20052;-46
2022/06/11 12:39:28;;;;;;;15.40;2.88;;;24.10;99.90;;;;;;5054326;28;20162;-48
2022/06/11 12:42:04;;;;;;;15.18;3.25;;;23.70;99.60;;;;;;5072303;28;20036;-47
2022/06/11 12:45:07;;;;;;;13.85;2.70;;;23.90;99.90;;;;;;5072298;28;20052;-47
2022/06/11 12:47:54;;;;;;;13.70;3.08;;;23.60;99.70;;;;;;5071907;28;20041;-46
2022/06/11 12:50:42;;;;;;;15.85;3.13;;;23.80;99.90;;;;;;5072403;28;20032;-45
2022/06/11 12:53:34;;;;;;;11.93;2.60;;;23.70;99.90;;;;;;5071972;28;20037;-48
2022/06/11 12:56:30;;;;;;;12.63;2.50;;;23.90;99.80;;;;;;5072087;28;20426;-47
2022/06/11 12:59:14;;;;;;;14.75;3.22;;;24.00;99.90;;;;;;5053749;28;20036;-46
2022/06/11 13:02:18;;;;;;;15.95;2.95;;;24.20;99.90;;;;;;5054025;28;20085;-46
2022/06/11 13:05:08;;;;;;;13.13;3.25;;;24.40;99.90;;;;;;5071265;28;20087;-51
2022/06/11 13:07:43;;;;;;;13.32;3.00;;;24.20;99.80;;;;;;5071828;28;20052;-46
2022/06/11 13:10:14;;;;;;;13.75;3.25;;;24.20;99.70;;;;;;5070705;28;20064;-46